sensor_id;sensor_type;location;lat;lon;timestamp;P1;durP1;ratioP1;P2;durP2;ratioP2
42294;SDS011;27947;47.556;18.718;2023-06-14T00:00:12;4.60;;;2.47;;
42294;SDS011;27947;47.556;18.718;2023-06-14T00:02:41;4.68;;;3.08;;
42294;SDS011;27947;47.556;18.718;2023-06-14T00:05:06;4.05;;;2.30;;
42294;SDS011;27947;47.556;18.718;2023-06-14T00:07:36;9.50;;;2.97;;
42294;SDS011;27947;47.556;18.718;2023-06-14T00:10:02;3.83;;;2.47;;
42294;SDS011;27947;47.556;18.718;2023-06-14T00:12:28;3.75;;;2.42;;
42294;SDS011;27947;47.556;18.718;2023-06-14T00:14:53;5.72;;;2.58;;
42294;SDS011;27947;47.556;18.718;2023-06-14T00:17:19;4.45;;;2.53;;
42294;SDS011;27947;47.556;18.718;2023-06-14T00:19:44;6.30;;;2.30;;
42294;SDS011;27947;47.556;18.718;2023-06-14T00:22:11;4.47;;;2.50;;
42294;SDS011;27947;47.556;18.718;2023-06-14T00:24:37;4.88;;;2.60;;
42294;SDS011;27947;47.556;18.718;2023-06-14T00:27:02;4.75;;;2.50;;
42294;SDS011;27947;47.556;18.718;2023-06-14T00:29:28;4.95;;;2.53;;
42294;SDS011;27947;47.556;18.718;2023-06-14T00:31:54;6.57;;;2.67;;
42294;SDS011;27947;47.556;18.718;2023-06-14T00:34:19;4.28;;;2.63;;
42294;SDS011;27947;47.556;18.718;2023-06-14T00:36:44;4.85;;;2.60;;
42294;SDS011;27947;47.556;18.718;2023-06-14T00:39:12;5.20;;;2.67;;
42294;SDS011;27947;47.556;18.718;2023-06-14T00:41:37;6.88;;;2.47;;
42294;SDS011;27947;47.556;18.718;2023-06-14T00:44:04;4.00;;;2.33;;
42294;SDS011;27947;47.556;18.718;2023-06-14T00:46:29;6.03;;;2.83;;
42294;SDS011;27947;47.556;18.718;2023-06-14T00:48:55;4.10;;;3.00;;
42294;SDS011;27947;47.556;18.718;2023-06-14T00:51:21;5.63;;;2.90;;
42294;SDS011;27947;47.556;18.718;2023-06-14T00:53:47;4.22;;;2.80;;
42294;SDS011;27947;47.556;18.718;2023-06-14T00:56:13;4.65;;;2.70;;
42294;SDS011;27947;47.556;18.718;2023-06-14T00:58:41;6.60;;;3.38;;
42294;SDS011;27947;47.556;18.718;2023-06-14T01:01:06;4.25;;;2.58;;
42294;SDS011;27947;47.556;18.718;2023-06-14T01:03:33;6.40;;;2.80;;
42294;SDS011;27947;47.556;18.718;2023-06-14T01:11:38;7.82;;;3.33;;
42294;SDS011;27947;47.556;18.718;2023-06-14T01:14:05;4.93;;;3.00;;
42294;SDS011;27947;47.556;18.718;2023-06-14T01:16:31;7.13;;;3.63;;
42294;SDS011;27947;47.556;18.718;2023-06-14T01:18:57;6.22;;;2.92;;
42294;SDS011;27947;47.556;18.718;2023-06-14T01:21:23;5.80;;;2.97;;
42294;SDS011;27947;47.556;18.718;2023-06-14T01:23:49;6.68;;;3.33;;
42294;SDS011;27947;47.556;18.718;2023-06-14T01:26:21;4.60;;;3.00;;
42294;SDS011;27947;47.556;18.718;2023-06-14T01:28:47;5.57;;;2.83;;
42294;SDS011;27947;47.556;18.718;2023-06-14T01:31:16;4.97;;;3.30;;
42294;SDS011;27947;47.556;18.718;2023-06-14T01:33:42;7.50;;;2.88;;
42294;SDS011;27947;47.556;18.718;2023-06-14T01:36:08;7.53;;;3.42;;
42294;SDS011;27947;47.556;18.718;2023-06-14T01:38:34;4.78;;;3.05;;
42294;SDS011;27947;47.556;18.718;2023-06-14T01:41:00;5.22;;;2.75;;
42294;SDS011;27947;47.556;18.718;2023-06-14T01:43:26;6.22;;;3.15;;
42294;SDS011;27947;47.556;18.718;2023-06-14T01:45:53;6.40;;;2.60;;
42294;SDS011;27947;47.556;18.718;2023-06-14T01:48:20;7.07;;;3.45;;
42294;SDS011;27947;47.556;18.718;2023-06-14T01:50:47;6.30;;;3.00;;
42294;SDS011;27947;47.556;18.718;2023-06-14T01:53:13;5.53;;;2.90;;
42294;SDS011;27947;47.556;18.718;2023-06-14T01:55:38;5.50;;;3.35;;
42294;SDS011;27947;47.556;18.718;2023-06-14T01:58:08;8.32;;;3.03;;
42294;SDS011;27947;47.556;18.718;2023-06-14T02:00:33;5.15;;;2.60;;
42294;SDS011;27947;47.556;18.718;2023-06-14T02:03:00;6.97;;;2.92;;
42294;SDS011;27947;47.556;18.718;2023-06-14T02:05:25;5.00;;;3.03;;
42294;SDS011;27947;47.556;18.718;2023-06-14T02:07:51;4.95;;;3.22;;
42294;SDS011;27947;47.556;18.718;2023-06-14T02:10:17;8.65;;;3.25;;
42294;SDS011;27947;47.556;18.718;2023-06-14T02:12:43;7.07;;;3.30;;
42294;SDS011;27947;47.556;18.718;2023-06-14T02:15:08;7.82;;;3.38;;
42294;SDS011;27947;47.556;18.718;2023-06-14T02:17:34;10.63;;;3.17;;
42294;SDS011;27947;47.556;18.718;2023-06-14T02:20:04;4.85;;;3.35;;
42294;SDS011;27947;47.556;18.718;2023-06-14T02:22:30;6.57;;;3.33;;
42294;SDS011;27947;47.556;18.718;2023-06-14T02:24:56;9.13;;;3.50;;
42294;SDS011;27947;47.556;18.718;2023-06-14T02:27:21;4.45;;;3.08;;
42294;SDS011;27947;47.556;18.718;2023-06-14T02:29:46;4.32;;;3.10;;
42294;SDS011;27947;47.556;18.718;2023-06-14T02:32:12;4.40;;;2.80;;
42294;SDS011;27947;47.556;18.718;2023-06-14T02:34:37;6.03;;;3.60;;
42294;SDS011;27947;47.556;18.718;2023-06-14T02:37:06;5.07;;;3.55;;
42294;SDS011;27947;47.556;18.718;2023-06-14T02:39:31;7.93;;;3.70;;
42294;SDS011;27947;47.556;18.718;2023-06-14T02:41:57;7.88;;;3.83;;
42294;SDS011;27947;47.556;18.718;2023-06-14T02:44:25;5.55;;;3.80;;
42294;SDS011;27947;47.556;18.718;2023-06-14T02:46:54;7.50;;;3.17;;
42294;SDS011;27947;47.556;18.718;2023-06-14T02:49:21;7.22;;;4.00;;
42294;SDS011;27947;47.556;18.718;2023-06-14T02:51:46;9.20;;;4.75;;
42294;SDS011;27947;47.556;18.718;2023-06-14T02:54:11;6.30;;;3.88;;
42294;SDS011;27947;47.556;18.718;2023-06-14T02:56:38;8.20;;;4.05;;
42294;SDS011;27947;47.556;18.718;2023-06-14T02:59:04;5.90;;;4.00;;
42294;SDS011;27947;47.556;18.718;2023-06-14T03:01:30;5.88;;;4.32;;
42294;SDS011;27947;47.556;18.718;2023-06-14T03:04:02;5.57;;;3.85;;
42294;SDS011;27947;47.556;18.718;2023-06-14T03:06:30;6.70;;;4.38;;
42294;SDS011;27947;47.556;18.718;2023-06-14T03:08:57;7.13;;;4.50;;
42294;SDS011;27947;47.556;18.718;2023-06-14T03:11:25;6.47;;;4.53;;
42294;SDS011;27947;47.556;18.718;2023-06-14T03:13:51;9.90;;;4.82;;
42294;SDS011;27947;47.556;18.718;2023-06-14T03:16:17;14.25;;;4.88;;
42294;SDS011;27947;47.556;18.718;2023-06-14T03:18:45;8.23;;;5.28;;
42294;SDS011;27947;47.556;18.718;2023-06-14T03:21:10;9.50;;;4.97;;
42294;SDS011;27947;47.556;18.718;2023-06-14T03:23:39;8.85;;;5.53;;
42294;SDS011;27947;47.556;18.718;2023-06-14T03:26:04;8.82;;;5.00;;
42294;SDS011;27947;47.556;18.718;2023-06-14T03:28:30;8.73;;;5.28;;
42294;SDS011;27947;47.556;18.718;2023-06-14T03:30:56;11.68;;;5.38;;
42294;SDS011;27947;47.556;18.718;2023-06-14T03:33:22;9.20;;;5.60;;
42294;SDS011;27947;47.556;18.718;2023-06-14T03:35:47;10.25;;;5.93;;
42294;SDS011;27947;47.556;18.718;2023-06-14T03:38:13;9.32;;;5.53;;
42294;SDS011;27947;47.556;18.718;2023-06-14T03:40:38;8.45;;;5.82;;
42294;SDS011;27947;47.556;18.718;2023-06-14T03:43:05;9.40;;;5.82;;
42294;SDS011;27947;47.556;18.718;2023-06-14T03:45:31;9.40;;;6.03;;
42294;SDS011;27947;47.556;18.718;2023-06-14T03:47:57;10.55;;;6.38;;
42294;SDS011;27947;47.556;18.718;2023-06-14T03:50:26;10.30;;;6.35;;
42294;SDS011;27947;47.556;18.718;2023-06-14T03:52:52;8.57;;;5.80;;
42294;SDS011;27947;47.556;18.718;2023-06-14T03:55:18;11.25;;;7.13;;
42294;SDS011;27947;47.556;18.718;2023-06-14T03:57:44;10.77;;;6.45;;
42294;SDS011;27947;47.556;18.718;2023-06-14T04:00:13;11.98;;;7.40;;
42294;SDS011;27947;47.556;18.718;2023-06-14T04:02:42;11.07;;;6.95;;
42294;SDS011;27947;47.556;18.718;2023-06-14T04:05:10;9.10;;;6.28;;
42294;SDS011;27947;47.556;18.718;2023-06-14T04:07:37;12.73;;;7.82;;
42294;SDS011;27947;47.556;18.718;2023-06-14T04:10:08;9.73;;;6.85;;
42294;SDS011;27947;47.556;18.718;2023-06-14T04:12:33;10.70;;;7.35;;
42294;SDS011;27947;47.556;18.718;2023-06-14T04:14:59;12.05;;;7.70;;
42294;SDS011;27947;47.556;18.718;2023-06-14T04:17:24;11.25;;;7.40;;
42294;SDS011;27947;47.556;18.718;2023-06-14T04:19:51;12.00;;;8.15;;
42294;SDS011;27947;47.556;18.718;2023-06-14T04:22:16;11.82;;;8.30;;
42294;SDS011;27947;47.556;18.718;2023-06-14T04:24:42;13.00;;;7.75;;
42294;SDS011;27947;47.556;18.718;2023-06-14T04:27:10;11.38;;;7.25;;
42294;SDS011;27947;47.556;18.718;2023-06-14T04:29:36;12.15;;;8.00;;
42294;SDS011;27947;47.556;18.718;2023-06-14T04:32:06;15.90;;;9.05;;
42294;SDS011;27947;47.556;18.718;2023-06-14T04:34:36;15.02;;;8.30;;
42294;SDS011;27947;47.556;18.718;2023-06-14T04:37:03;11.38;;;7.70;;
42294;SDS011;27947;47.556;18.718;2023-06-14T04:39:31;13.93;;;8.65;;
42294;SDS011;27947;47.556;18.718;2023-06-14T04:41:59;11.98;;;8.40;;
42294;SDS011;27947;47.556;18.718;2023-06-14T04:44:26;14.68;;;8.88;;
42294;SDS011;27947;47.556;18.718;2023-06-14T04:46:56;14.18;;;8.55;;
42294;SDS011;27947;47.556;18.718;2023-06-14T04:49:22;13.73;;;8.80;;
42294;SDS011;27947;47.556;18.718;2023-06-14T04:51:48;14.00;;;9.00;;
42294;SDS011;27947;47.556;18.718;2023-06-14T04:54:16;13.98;;;8.88;;
42294;SDS011;27947;47.556;18.718;2023-06-14T04:56:45;13.73;;;9.10;;
42294;SDS011;27947;47.556;18.718;2023-06-14T04:59:11;17.25;;;9.02;;
42294;SDS011;27947;47.556;18.718;2023-06-14T05:01:38;15.77;;;9.48;;
42294;SDS011;27947;47.556;18.718;2023-06-14T05:04:03;15.23;;;9.68;;
42294;SDS011;27947;47.556;18.718;2023-06-14T05:06:30;16.40;;;9.80;;
42294;SDS011;27947;47.556;18.718;2023-06-14T05:08:56;14.30;;;9.48;;
42294;SDS011;27947;47.556;18.718;2023-06-14T05:11:22;15.52;;;9.68;;
42294;SDS011;27947;47.556;18.718;2023-06-14T05:13:52;14.18;;;9.50;;
42294;SDS011;27947;47.556;18.718;2023-06-14T05:16:17;16.55;;;9.50;;
42294;SDS011;27947;47.556;18.718;2023-06-14T05:18:44;15.52;;;9.52;;
42294;SDS011;27947;47.556;18.718;2023-06-14T05:21:11;17.88;;;11.35;;
42294;SDS011;27947;47.556;18.718;2023-06-14T05:23:36;14.35;;;8.88;;
42294;SDS011;27947;47.556;18.718;2023-06-14T05:26:01;15.05;;;9.48;;
42294;SDS011;27947;47.556;18.718;2023-06-14T05:28:29;13.88;;;9.52;;
42294;SDS011;27947;47.556;18.718;2023-06-14T05:30:55;16.00;;;9.73;;
42294;SDS011;27947;47.556;18.718;2023-06-14T05:33:21;17.05;;;11.45;;
42294;SDS011;27947;47.556;18.718;2023-06-14T05:35:46;16.45;;;9.95;;
42294;SDS011;27947;47.556;18.718;2023-06-14T05:38:12;15.75;;;9.75;;
42294;SDS011;27947;47.556;18.718;2023-06-14T05:40:37;14.52;;;8.88;;
42294;SDS011;27947;47.556;18.718;2023-06-14T05:43:02;17.88;;;9.20;;
42294;SDS011;27947;47.556;18.718;2023-06-14T05:45:28;15.40;;;10.15;;
42294;SDS011;27947;47.556;18.718;2023-06-14T05:47:53;17.40;;;10.15;;
42294;SDS011;27947;47.556;18.718;2023-06-14T05:50:22;13.82;;;9.15;;
42294;SDS011;27947;47.556;18.718;2023-06-14T05:52:47;15.65;;;9.48;;
42294;SDS011;27947;47.556;18.718;2023-06-14T05:55:12;17.42;;;10.27;;
42294;SDS011;27947;47.556;18.718;2023-06-14T05:57:38;18.48;;;9.77;;
42294;SDS011;27947;47.556;18.718;2023-06-14T06:00:03;18.13;;;9.57;;
42294;SDS011;27947;47.556;18.718;2023-06-14T06:02:42;12.27;;;8.80;;
42294;SDS011;27947;47.556;18.718;2023-06-14T06:05:08;14.50;;;9.05;;
42294;SDS011;27947;47.556;18.718;2023-06-14T06:07:34;15.02;;;9.98;;
42294;SDS011;27947;47.556;18.718;2023-06-14T06:09:59;13.02;;;8.75;;
42294;SDS011;27947;47.556;18.718;2023-06-14T06:12:25;13.40;;;8.90;;
42294;SDS011;27947;47.556;18.718;2023-06-14T06:14:50;13.40;;;8.50;;
42294;SDS011;27947;47.556;18.718;2023-06-14T06:17:15;14.25;;;9.02;;
42294;SDS011;27947;47.556;18.718;2023-06-14T06:19:41;19.15;;;9.35;;
42294;SDS011;27947;47.556;18.718;2023-06-14T06:22:06;16.45;;;8.93;;
42294;SDS011;27947;47.556;18.718;2023-06-14T06:24:32;11.88;;;8.35;;
42294;SDS011;27947;47.556;18.718;2023-06-14T06:26:57;14.88;;;9.13;;
42294;SDS011;27947;47.556;18.718;2023-06-14T06:29:22;16.20;;;9.23;;
42294;SDS011;27947;47.556;18.718;2023-06-14T06:31:48;14.80;;;8.65;;
42294;SDS011;27947;47.556;18.718;2023-06-14T06:34:13;14.88;;;8.93;;
42294;SDS011;27947;47.556;18.718;2023-06-14T06:36:38;13.95;;;8.85;;
42294;SDS011;27947;47.556;18.718;2023-06-14T06:39:04;14.43;;;8.57;;
42294;SDS011;27947;47.556;18.718;2023-06-14T06:41:35;15.50;;;9.15;;
42294;SDS011;27947;47.556;18.718;2023-06-14T06:44:02;16.60;;;9.02;;
42294;SDS011;27947;47.556;18.718;2023-06-14T06:46:28;15.15;;;8.70;;
42294;SDS011;27947;47.556;18.718;2023-06-14T06:48:53;13.95;;;9.40;;
42294;SDS011;27947;47.556;18.718;2023-06-14T06:51:19;12.98;;;8.60;;
42294;SDS011;27947;47.556;18.718;2023-06-14T06:53:51;14.10;;;8.75;;
42294;SDS011;27947;47.556;18.718;2023-06-14T06:56:16;17.13;;;9.25;;
42294;SDS011;27947;47.556;18.718;2023-06-14T06:58:42;13.73;;;8.35;;
42294;SDS011;27947;47.556;18.718;2023-06-14T07:01:07;14.82;;;7.53;;
42294;SDS011;27947;47.556;18.718;2023-06-14T07:03:34;15.25;;;8.95;;
42294;SDS011;27947;47.556;18.718;2023-06-14T07:06:00;16.75;;;8.43;;
42294;SDS011;27947;47.556;18.718;2023-06-14T07:08:25;11.40;;;7.53;;
42294;SDS011;27947;47.556;18.718;2023-06-14T07:10:52;12.50;;;7.35;;
42294;SDS011;27947;47.556;18.718;2023-06-14T07:13:17;12.55;;;7.10;;
42294;SDS011;27947;47.556;18.718;2023-06-14T07:15:42;10.27;;;7.20;;
42294;SDS011;27947;47.556;18.718;2023-06-14T07:18:08;11.80;;;6.65;;
42294;SDS011;27947;47.556;18.718;2023-06-14T07:20:33;13.23;;;7.28;;
42294;SDS011;27947;47.556;18.718;2023-06-14T07:22:59;9.88;;;6.68;;
42294;SDS011;27947;47.556;18.718;2023-06-14T07:25:24;12.98;;;6.20;;
42294;SDS011;27947;47.556;18.718;2023-06-14T07:27:50;10.57;;;5.75;;
42294;SDS011;27947;47.556;18.718;2023-06-14T07:30:15;9.88;;;5.38;;
42294;SDS011;27947;47.556;18.718;2023-06-14T07:32:41;7.93;;;5.80;;
42294;SDS011;27947;47.556;18.718;2023-06-14T07:35:06;9.02;;;5.40;;
42294;SDS011;27947;47.556;18.718;2023-06-14T07:37:32;10.60;;;5.15;;
42294;SDS011;27947;47.556;18.718;2023-06-14T07:39:57;9.73;;;5.50;;
42294;SDS011;27947;47.556;18.718;2023-06-14T07:42:22;12.23;;;6.07;;
42294;SDS011;27947;47.556;18.718;2023-06-14T07:44:48;10.10;;;5.63;;
42294;SDS011;27947;47.556;18.718;2023-06-14T07:47:13;13.00;;;5.63;;
42294;SDS011;27947;47.556;18.718;2023-06-14T07:49:38;9.90;;;5.50;;
42294;SDS011;27947;47.556;18.718;2023-06-14T07:52:04;7.43;;;5.10;;
42294;SDS011;27947;47.556;18.718;2023-06-14T07:54:30;9.80;;;5.30;;
42294;SDS011;27947;47.556;18.718;2023-06-14T07:56:56;7.38;;;4.88;;
42294;SDS011;27947;47.556;18.718;2023-06-14T07:59:22;8.60;;;5.18;;
42294;SDS011;27947;47.556;18.718;2023-06-14T08:01:47;7.47;;;4.63;;
42294;SDS011;27947;47.556;18.718;2023-06-14T08:04:16;7.95;;;5.32;;
42294;SDS011;27947;47.556;18.718;2023-06-14T08:06:41;11.27;;;6.15;;
42294;SDS011;27947;47.556;18.718;2023-06-14T08:09:10;8.23;;;5.68;;
42294;SDS011;27947;47.556;18.718;2023-06-14T08:11:36;9.90;;;6.22;;
42294;SDS011;27947;47.556;18.718;2023-06-14T08:14:01;9.32;;;6.20;;
42294;SDS011;27947;47.556;18.718;2023-06-14T08:16:27;9.73;;;6.55;;
42294;SDS011;27947;47.556;18.718;2023-06-14T08:18:52;12.63;;;6.32;;
42294;SDS011;27947;47.556;18.718;2023-06-14T08:21:18;9.82;;;6.88;;
42294;SDS011;27947;47.556;18.718;2023-06-14T08:23:43;12.88;;;7.05;;
42294;SDS011;27947;47.556;18.718;2023-06-14T08:26:09;14.43;;;6.50;;
42294;SDS011;27947;47.556;18.718;2023-06-14T08:28:34;9.68;;;6.18;;
42294;SDS011;27947;47.556;18.718;2023-06-14T08:31:00;13.65;;;6.65;;
42294;SDS011;27947;47.556;18.718;2023-06-14T08:33:25;12.65;;;6.50;;
42294;SDS011;27947;47.556;18.718;2023-06-14T08:35:50;9.85;;;7.07;;
42294;SDS011;27947;47.556;18.718;2023-06-14T08:38:16;11.65;;;6.45;;
42294;SDS011;27947;47.556;18.718;2023-06-14T08:40:41;9.48;;;6.28;;
42294;SDS011;27947;47.556;18.718;2023-06-14T08:43:07;11.27;;;7.32;;
42294;SDS011;27947;47.556;18.718;2023-06-14T08:45:32;10.82;;;6.72;;
42294;SDS011;27947;47.556;18.718;2023-06-14T08:47:58;10.82;;;6.47;;
42294;SDS011;27947;47.556;18.718;2023-06-14T08:50:25;10.77;;;6.72;;
42294;SDS011;27947;47.556;18.718;2023-06-14T08:52:58;15.45;;;6.97;;
42294;SDS011;27947;47.556;18.718;2023-06-14T08:55:28;15.13;;;7.03;;
42294;SDS011;27947;47.556;18.718;2023-06-14T08:57:55;11.80;;;7.07;;
42294;SDS011;27947;47.556;18.718;2023-06-14T09:00:22;13.90;;;7.00;;
42294;SDS011;27947;47.556;18.718;2023-06-14T09:02:49;14.88;;;6.85;;
42294;SDS011;27947;47.556;18.718;2023-06-14T09:05:15;13.48;;;7.43;;
42294;SDS011;27947;47.556;18.718;2023-06-14T09:07:43;14.43;;;7.20;;
42294;SDS011;27947;47.556;18.718;2023-06-14T09:10:09;12.02;;;6.82;;
42294;SDS011;27947;47.556;18.718;2023-06-14T09:12:36;11.57;;;6.50;;
42294;SDS011;27947;47.556;18.718;2023-06-14T09:15:02;10.35;;;6.10;;
42294;SDS011;27947;47.556;18.718;2023-06-14T09:17:32;8.45;;;5.93;;
42294;SDS011;27947;47.556;18.718;2023-06-14T09:19:58;12.82;;;6.20;;
42294;SDS011;27947;47.556;18.718;2023-06-14T09:22:23;10.77;;;6.13;;
42294;SDS011;27947;47.556;18.718;2023-06-14T09:24:49;11.20;;;6.47;;
42294;SDS011;27947;47.556;18.718;2023-06-14T09:27:15;11.38;;;6.05;;
42294;SDS011;27947;47.556;18.718;2023-06-14T09:29:40;11.00;;;6.53;;
42294;SDS011;27947;47.556;18.718;2023-06-14T09:32:06;10.43;;;6.53;;
42294;SDS011;27947;47.556;18.718;2023-06-14T09:34:32;9.50;;;5.65;;
42294;SDS011;27947;47.556;18.718;2023-06-14T09:36:58;8.15;;;5.88;;
42294;SDS011;27947;47.556;18.718;2023-06-14T09:39:23;9.10;;;5.53;;
42294;SDS011;27947;47.556;18.718;2023-06-14T09:41:50;6.88;;;5.13;;
42294;SDS011;27947;47.556;18.718;2023-06-14T09:44:15;9.23;;;5.15;;
42294;SDS011;27947;47.556;18.718;2023-06-14T09:46:43;10.65;;;6.85;;
42294;SDS011;27947;47.556;18.718;2023-06-14T09:49:09;9.45;;;5.50;;
42294;SDS011;27947;47.556;18.718;2023-06-14T09:51:34;7.88;;;5.70;;
42294;SDS011;27947;47.556;18.718;2023-06-14T09:54:02;12.45;;;6.00;;
42294;SDS011;27947;47.556;18.718;2023-06-14T09:56:30;10.43;;;5.78;;
42294;SDS011;27947;47.556;18.718;2023-06-14T09:58:56;12.48;;;5.13;;
42294;SDS011;27947;47.556;18.718;2023-06-14T10:01:25;8.18;;;5.57;;
42294;SDS011;27947;47.556;18.718;2023-06-14T10:03:57;7.45;;;4.85;;
42294;SDS011;27947;47.556;18.718;2023-06-14T10:06:24;5.97;;;4.40;;
42294;SDS011;27947;47.556;18.718;2023-06-14T10:08:51;10.43;;;4.75;;
42294;SDS011;27947;47.556;18.718;2023-06-14T10:11:17;7.90;;;4.80;;
42294;SDS011;27947;47.556;18.718;2023-06-14T10:13:42;10.43;;;5.38;;
42294;SDS011;27947;47.556;18.718;2023-06-14T10:16:10;8.80;;;4.85;;
42294;SDS011;27947;47.556;18.718;2023-06-14T10:23:53;7.60;;;4.80;;
42294;SDS011;27947;47.556;18.718;2023-06-14T10:26:19;7.03;;;4.57;;
42294;SDS011;27947;47.556;18.718;2023-06-14T10:28:56;9.82;;;4.95;;
42294;SDS011;27947;47.556;18.718;2023-06-14T10:31:22;6.95;;;4.57;;
42294;SDS011;27947;47.556;18.718;2023-06-14T10:38:57;7.18;;;4.60;;
42294;SDS011;27947;47.556;18.718;2023-06-14T10:41:23;6.47;;;4.50;;
42294;SDS011;27947;47.556;18.718;2023-06-14T10:43:48;6.22;;;4.15;;
42294;SDS011;27947;47.556;18.718;2023-06-14T10:46:17;6.82;;;4.60;;
42294;SDS011;27947;47.556;18.718;2023-06-14T10:48:43;7.25;;;4.03;;
42294;SDS011;27947;47.556;18.718;2023-06-14T10:51:15;6.63;;;4.13;;
42294;SDS011;27947;47.556;18.718;2023-06-14T10:53:45;6.38;;;4.15;;
42294;SDS011;27947;47.556;18.718;2023-06-14T10:56:22;6.88;;;3.92;;
42294;SDS011;27947;47.556;18.718;2023-06-14T10:58:49;14.02;;;4.53;;
42294;SDS011;27947;47.556;18.718;2023-06-14T11:01:15;8.35;;;3.75;;
42294;SDS011;27947;47.556;18.718;2023-06-14T11:04:06;6.25;;;4.07;;
42294;SDS011;27947;47.556;18.718;2023-06-14T11:06:30;7.63;;;3.92;;
42294;SDS011;27947;47.556;18.718;2023-06-14T11:11:31;7.38;;;4.20;;
42294;SDS011;27947;47.556;18.718;2023-06-14T11:13:57;10.27;;;4.00;;
42294;SDS011;27947;47.556;18.718;2023-06-14T11:16:22;6.47;;;4.35;;
42294;SDS011;27947;47.556;18.718;2023-06-14T11:18:50;6.90;;;4.50;;
42294;SDS011;27947;47.556;18.718;2023-06-14T11:21:18;8.65;;;4.03;;
42294;SDS011;27947;47.556;18.718;2023-06-14T11:23:51;3.72;;;3.25;;
42294;SDS011;27947;47.556;18.718;2023-06-14T11:26:23;9.05;;;3.58;;
42294;SDS011;27947;47.556;18.718;2023-06-14T11:28:49;7.10;;;3.30;;
42294;SDS011;27947;47.556;18.718;2023-06-14T11:31:19;6.07;;;3.30;;
42294;SDS011;27947;47.556;18.718;2023-06-14T11:33:49;7.47;;;3.65;;
42294;SDS011;27947;47.556;18.718;2023-06-14T11:36:15;8.05;;;3.10;;
42294;SDS011;27947;47.556;18.718;2023-06-14T11:38:40;6.57;;;3.15;;
42294;SDS011;27947;47.556;18.718;2023-06-14T11:41:05;4.40;;;3.33;;
42294;SDS011;27947;47.556;18.718;2023-06-14T11:43:31;7.10;;;3.00;;
42294;SDS011;27947;47.556;18.718;2023-06-14T11:45:58;6.63;;;3.20;;
42294;SDS011;27947;47.556;18.718;2023-06-14T11:48:35;6.07;;;3.20;;
42294;SDS011;27947;47.556;18.718;2023-06-14T11:51:00;5.90;;;3.40;;
42294;SDS011;27947;47.556;18.718;2023-06-14T11:53:26;5.15;;;2.67;;
42294;SDS011;27947;47.556;18.718;2023-06-14T11:55:51;5.72;;;3.13;;
42294;SDS011;27947;47.556;18.718;2023-06-14T11:58:16;8.32;;;3.50;;
42294;SDS011;27947;47.556;18.718;2023-06-14T12:00:43;8.70;;;4.65;;
42294;SDS011;27947;47.556;18.718;2023-06-14T12:03:08;11.57;;;4.13;;
42294;SDS011;27947;47.556;18.718;2023-06-14T12:05:34;6.90;;;3.33;;
42294;SDS011;27947;47.556;18.718;2023-06-14T12:08:00;5.53;;;3.00;;
42294;SDS011;27947;47.556;18.718;2023-06-14T12:10:25;4.75;;;2.80;;
42294;SDS011;27947;47.556;18.718;2023-06-14T12:12:55;4.05;;;2.95;;
42294;SDS011;27947;47.556;18.718;2023-06-14T12:15:21;4.32;;;2.83;;
42294;SDS011;27947;47.556;18.718;2023-06-14T12:17:46;6.43;;;2.63;;
42294;SDS011;27947;47.556;18.718;2023-06-14T12:20:12;6.68;;;2.65;;
42294;SDS011;27947;47.556;18.718;2023-06-14T12:25:37;5.70;;;2.78;;
42294;SDS011;27947;47.556;18.718;2023-06-14T12:28:04;4.30;;;2.85;;
42294;SDS011;27947;47.556;18.718;2023-06-14T12:30:30;8.30;;;3.03;;
42294;SDS011;27947;47.556;18.718;2023-06-14T12:32:55;5.82;;;3.13;;
42294;SDS011;27947;47.556;18.718;2023-06-14T12:35:21;5.22;;;3.20;;
42294;SDS011;27947;47.556;18.718;2023-06-14T12:37:46;6.10;;;3.05;;
42294;SDS011;27947;47.556;18.718;2023-06-14T12:40:12;5.45;;;2.92;;
42294;SDS011;27947;47.556;18.718;2023-06-14T12:42:38;4.13;;;2.67;;
42294;SDS011;27947;47.556;18.718;2023-06-14T12:45:03;3.10;;;2.45;;
42294;SDS011;27947;47.556;18.718;2023-06-14T12:47:29;3.50;;;2.70;;
42294;SDS011;27947;47.556;18.718;2023-06-14T12:49:54;7.50;;;3.00;;
42294;SDS011;27947;47.556;18.718;2023-06-14T12:52:20;4.30;;;2.45;;
42294;SDS011;27947;47.556;18.718;2023-06-14T12:54:45;4.72;;;2.75;;
42294;SDS011;27947;47.556;18.718;2023-06-14T12:57:10;4.70;;;2.60;;
42294;SDS011;27947;47.556;18.718;2023-06-14T12:59:36;4.07;;;2.65;;
42294;SDS011;27947;47.556;18.718;2023-06-14T13:04:36;4.22;;;2.78;;
42294;SDS011;27947;47.556;18.718;2023-06-14T13:07:01;3.72;;;2.67;;
42294;SDS011;27947;47.556;18.718;2023-06-14T13:09:26;9.55;;;2.83;;
42294;SDS011;27947;47.556;18.718;2023-06-14T13:11:52;4.88;;;2.63;;
42294;SDS011;27947;47.556;18.718;2023-06-14T13:14:17;5.07;;;2.40;;
42294;SDS011;27947;47.556;18.718;2023-06-14T13:16:42;4.70;;;2.40;;
42294;SDS011;27947;47.556;18.718;2023-06-14T13:19:08;3.20;;;2.50;;
42294;SDS011;27947;47.556;18.718;2023-06-14T13:21:33;3.63;;;2.45;;
42294;SDS011;27947;47.556;18.718;2023-06-14T13:23:58;6.30;;;3.35;;
42294;SDS011;27947;47.556;18.718;2023-06-14T13:26:24;5.55;;;2.53;;
42294;SDS011;27947;47.556;18.718;2023-06-14T13:28:50;5.20;;;2.20;;
42294;SDS011;27947;47.556;18.718;2023-06-14T13:31:16;3.35;;;2.40;;
42294;SDS011;27947;47.556;18.718;2023-06-14T13:33:41;3.78;;;2.55;;
42294;SDS011;27947;47.556;18.718;2023-06-14T13:36:07;7.38;;;3.25;;
42294;SDS011;27947;47.556;18.718;2023-06-14T13:38:32;6.72;;;2.70;;
42294;SDS011;27947;47.556;18.718;2023-06-14T13:40:58;3.40;;;2.15;;
42294;SDS011;27947;47.556;18.718;2023-06-14T13:43:23;3.00;;;2.20;;
42294;SDS011;27947;47.556;18.718;2023-06-14T13:45:48;4.40;;;2.30;;
42294;SDS011;27947;47.556;18.718;2023-06-14T13:48:14;7.18;;;2.50;;
42294;SDS011;27947;47.556;18.718;2023-06-14T13:50:39;3.65;;;2.45;;
42294;SDS011;27947;47.556;18.718;2023-06-14T13:53:05;3.25;;;2.65;;
42294;SDS011;27947;47.556;18.718;2023-06-14T13:55:30;3.38;;;2.53;;
42294;SDS011;27947;47.556;18.718;2023-06-14T13:57:56;4.00;;;2.03;;
42294;SDS011;27947;47.556;18.718;2023-06-14T14:00:22;4.47;;;2.60;;
42294;SDS011;27947;47.556;18.718;2023-06-14T14:02:48;4.95;;;2.38;;
42294;SDS011;27947;47.556;18.718;2023-06-14T14:05:15;2.80;;;2.00;;
42294;SDS011;27947;47.556;18.718;2023-06-14T14:07:41;3.72;;;2.20;;
42294;SDS011;27947;47.556;18.718;2023-06-14T14:10:07;4.03;;;2.30;;
42294;SDS011;27947;47.556;18.718;2023-06-14T14:12:33;4.25;;;2.13;;
42294;SDS011;27947;47.556;18.718;2023-06-14T14:14:59;4.75;;;2.45;;
42294;SDS011;27947;47.556;18.718;2023-06-14T14:17:24;5.80;;;2.35;;
42294;SDS011;27947;47.556;18.718;2023-06-14T14:19:50;3.42;;;2.20;;
42294;SDS011;27947;47.556;18.718;2023-06-14T14:22:15;4.90;;;2.47;;
42294;SDS011;27947;47.556;18.718;2023-06-14T14:24:41;3.17;;;2.22;;
42294;SDS011;27947;47.556;18.718;2023-06-14T14:27:06;4.38;;;2.42;;
42294;SDS011;27947;47.556;18.718;2023-06-14T14:29:33;5.30;;;2.30;;
42294;SDS011;27947;47.556;18.718;2023-06-14T14:31:58;3.42;;;2.25;;
42294;SDS011;27947;47.556;18.718;2023-06-14T14:34:26;5.18;;;2.53;;
42294;SDS011;27947;47.556;18.718;2023-06-14T14:36:53;2.25;;;1.88;;
42294;SDS011;27947;47.556;18.718;2023-06-14T14:39:19;5.00;;;2.30;;
42294;SDS011;27947;47.556;18.718;2023-06-14T14:41:44;3.83;;;2.20;;
42294;SDS011;27947;47.556;18.718;2023-06-14T14:44:10;4.57;;;2.20;;
42294;SDS011;27947;47.556;18.718;2023-06-14T14:46:35;6.28;;;2.00;;